Time;durP1;ratioP1;P1;durP2;ratioP2;P2;SDS_P1;SDS_P2;PMS_P1;PMS_P2;Temp;Humidity;BMP_temperature;BMP_pressure;BME280_temperature;BME280_humidity;BME280_pressure;Samples;Min_cycle;Max_cycle;Signal;HPM_P1;HPM_P2
2021/10/31 00:00:07;;;;;;;13.03;10.50;;;;;;;10.58;99.44;100011.56;684363;28;1304;-48
2021/10/31 00:00:34;;;;;;;12.95;10.50;;;;;;;10.54;99.46;100012.50;683896;28;1274;-51
2021/10/31 00:00:54;;;;;;;12.27;10.23;;;;;;;10.54;98.95;100010.75;682927;28;4488;-52
2021/10/31 00:01:18;;;;;;;12.13;9.50;;;;;;;10.55;98.42;100006.41;683409;28;1261;-51
2021/10/31 00:01:38;;;;;;;11.68;9.40;;;;;;;10.56;98.55;100016.84;682271;28;1474;-51
2021/10/31 00:01:59;;;;;;;11.43;9.00;;;;;;;10.59;98.07;100009.81;684553;28;1103;-48
2021/10/31 00:02:19;;;;;;;11.73;9.02;;;;;;;10.59;97.74;100015.03;683998;28;1210;-52
2021/10/31 00:02:40;;;;;;;11.87;9.13;;;;;;;10.57;98.00;100008.06;683766;28;3533;-49
2021/10/31 00:03:00;;;;;;;11.63;9.20;;;;;;;10.54;98.43;100015.13;683656;28;3468;-51
2021/10/31 00:03:20;;;;;;;11.50;9.50;;;;;;;10.46;99.25;100023.06;683908;28;1052;-51
2021/10/31 00:03:41;;;;;;;12.87;10.10;;;;;;;10.42;99.87;100018.75;684048;28;1425;-50
2021/10/31 00:04:01;;;;;;;12.18;10.00;;;;;;;10.40;100.00;100017.94;683703;28;4515;-51
2021/10/31 00:04:22;;;;;;;11.63;10.15;;;;;;;10.38;100.00;100015.34;684717;28;972;-50
2021/10/31 00:04:43;;;;;;;12.37;10.40;;;;;;;10.38;100.00;100017.09;683537;28;1442;-50
2021/10/31 00:05:04;;;;;;;12.52;10.20;;;;;;;10.37;100.00;100021.47;684309;28;1084;-52
2021/10/31 00:05:25;;;;;;;12.15;9.85;;;;;;;10.36;100.00;100016.25;683079;28;1242;-52
2021/10/31 00:05:48;;;;;;;12.88;10.30;;;;;;;10.35;100.00;100017.13;682642;28;3650;-53
2021/10/31 00:06:08;;;;;;;13.25;10.43;;;;;;;10.33;100.00;100019.75;683815;28;2050;-50
2021/10/31 00:06:28;;;;;;;13.68;10.20;;;;;;;10.33;100.00;100016.28;683864;28;971;-49
2021/10/31 00:06:49;;;;;;;11.93;10.23;;;;;;;10.32;100.00;100014.53;683836;28;1214;-53
2021/10/31 00:07:10;;;;;;;11.70;9.93;;;;;;;10.30;100.00;100019.78;683608;28;4547;-49
2021/10/31 00:07:30;;;;;;;12.38;9.57;;;;;;;10.31;100.00;100018.03;682648;28;1189;-49
2021/10/31 00:07:51;;;;;;;13.30;9.90;;;;;;;10.32;99.76;100014.53;683716;28;1136;-52
2021/10/31 00:08:12;;;;;;;11.27;9.15;;;;;;;10.37;99.15;100017.97;683665;28;1277;-50
2021/10/31 00:08:32;;;;;;;10.90;8.80;;;;;;;10.42;98.70;100021.38;684466;28;1942;-50
2021/10/31 00:08:53;;;;;;;10.70;8.80;;;;;;;10.45;98.29;100021.31;683819;28;1231;-51
2021/10/31 00:09:13;;;;;;;11.40;8.88;;;;;;;10.48;97.79;100021.31;683398;28;3138;-49
2021/10/31 00:09:33;;;;;;;11.40;9.27;;;;;;;10.48;98.12;100020.41;682724;28;3776;-52
2021/10/31 00:09:54;;;;;;;10.53;9.00;;;;;;;10.52;97.76;100017.75;682963;28;4701;-51
2021/10/31 00:10:15;;;;;;;10.52;8.95;;;;;;;10.51;98.16;100021.25;683917;28;1393;-49
2021/10/31 00:10:35;;;;;;;10.63;8.88;;;;;;;10.50;98.17;100027.34;684259;28;1040;-50
2021/10/31 00:10:57;;;;;;;11.30;9.02;;;;;;;10.48;98.28;100016.09;687064;28;1056;-50
2021/10/31 00:11:19;;;;;;;10.43;8.80;;;;;;;10.47;98.58;100019.56;685473;28;1195;-53
2021/10/31 00:11:39;;;;;;;9.77;8.68;;;;;;;10.42;99.14;100021.38;685314;28;1143;-51
2021/10/31 00:12:00;;;;;;;12.55;9.38;;;;;;;10.40;99.21;100025.78;686766;28;1296;-50
2021/10/31 00:12:20;;;;;;;12.20;9.50;;;;;;;10.43;98.76;100019.66;685914;28;2014;-51
2021/10/31 00:12:41;;;;;;;11.40;9.00;;;;;;;10.39;99.23;100024.91;684522;28;3852;-53
2021/10/31 00:13:01;;;;;;;11.93;9.40;;;;;;;10.38;99.12;100023.19;682794;28;4333;-49
2021/10/31 00:13:21;;;;;;;11.43;9.13;;;;;;;10.43;98.52;100027.50;683819;28;1230;-52
2021/10/31 00:13:42;;;;;;;9.90;8.30;;;;;;;10.43;98.41;100028.34;680223;28;1180;-49
2021/10/31 00:14:02;;;;;;;10.60;9.23;;;;;;;10.41;99.05;100018.78;681118;28;1247;-49
2021/10/31 00:14:23;;;;;;;10.73;9.17;;;;;;;10.39;99.17;100026.66;681769;28;1108;-50
2021/10/31 00:14:44;;;;;;;10.48;8.98;;;;;;;10.37;99.50;100023.19;681078;28;1223;-52
2021/10/31 00:15:05;;;;;;;11.88;8.75;;;;;;;10.38;98.42;100028.41;681688;28;1048;-52
2021/10/31 00:15:25;;;;;;;12.15;8.77;;;;;;;10.41;98.38;100024.88;683200;28;3111;-50
2021/10/31 00:15:46;;;;;;;10.73;8.57;;;;;;;10.42;98.12;100028.38;682186;28;3667;-51
2021/10/31 00:16:06;;;;;;;11.02;8.43;;;;;;;10.41;97.77;100035.31;682836;28;4573;-51
2021/10/31 00:16:27;;;;;;;11.43;8.70;;;;;;;10.38;98.19;100028.41;683467;28;1450;-48
2021/10/31 00:16:47;;;;;;;10.98;8.80;;;;;;;10.35;98.90;100022.34;682833;28;2858;-51
2021/10/31 00:17:07;;;;;;;11.03;8.97;;;;;;;10.34;99.18;100023.19;684010;28;1297;-51
2021/10/31 00:17:28;;;;;;;11.98;9.43;;;;;;;10.30;99.53;100021.53;681035;28;1379;-51
2021/10/31 00:17:49;;;;;;;10.43;9.17;;;;;;;10.33;99.24;100026.72;680776;28;1093;-51
2021/10/31 00:18:09;;;;;;;10.15;8.68;;;;;;;10.33;98.51;100024.13;680967;28;1342;-51
2021/10/31 00:18:29;;;;;;;10.17;8.50;;;;;;;10.36;97.92;100022.34;682022;28;1124;-53
2021/10/31 00:18:50;;;;;;;9.23;8.02;;;;;;;10.40;97.64;100025.78;683438;28;1353;-50
2021/10/31 00:19:11;;;;;;;9.60;8.17;;;;;;;10.41;97.67;100031.84;683159;28;4351;-50
2021/10/31 00:19:32;;;;;;;10.23;8.45;;;;;;;10.35;98.68;100025.81;682835;28;2321;-53
2021/10/31 00:19:53;;;;;;;11.98;9.50;;;;;;;10.29;98.92;100025.03;682903;28;1184;-49
2021/10/31 00:20:14;;;;;;;11.55;9.65;;;;;;;10.28;99.46;100025.91;686809;28;1408;-50
2021/10/31 00:20:34;;;;;;;13.03;9.87;;;;;;;10.26;99.79;100030.28;684922;28;1257;-54
2021/10/31 00:20:56;;;;;;;12.33;9.37;;;;;;;10.27;99.41;100029.41;686356;28;1127;-52
2021/10/31 00:21:17;;;;;;;10.43;8.68;;;;;;;10.29;98.57;100023.28;687284;28;1012;-50
2021/10/31 00:21:37;;;;;;;11.18;8.90;;;;;;;10.31;98.37;100025.88;685228;28;1242;-49
2021/10/31 00:21:57;;;;;;;10.83;9.00;;;;;;;10.30;98.42;100026.75;685278;28;4479;-54
2021/10/31 00:22:18;;;;;;;12.23;9.15;;;;;;;10.29;98.33;100025.03;684543;28;981;-52
2021/10/31 00:22:40;;;;;;;10.73;8.60;;;;;;;10.30;97.98;100034.59;682890;28;1269;-51
2021/10/31 00:23:00;;;;;;;12.18;8.60;;;;;;;10.35;97.65;100030.19;680095;28;3659;-49
2021/10/31 00:23:20;;;;;;;11.20;8.87;;;;;;;10.33;97.79;100026.72;680879;28;1302;-53
2021/10/31 00:23:41;;;;;;;10.97;9.17;;;;;;;10.27;98.75;100027.66;680993;28;1429;-49
2021/10/31 00:24:01;;;;;;;11.67;9.30;;;;;;;10.26;98.95;100027.66;680214;28;1294;-49
2021/10/31 00:24:22;;;;;;;11.18;9.20;;;;;;;10.25;99.10;100028.56;678511;29;1255;-51
2021/10/31 00:24:42;;;;;;;11.10;8.87;;;;;;;10.25;98.40;100028.56;678429;28;1060;-49
2021/10/31 00:25:04;;;;;;;10.75;8.80;;;;;;;10.29;98.00;100027.66;683046;28;4528;-51
2021/10/31 00:25:24;;;;;;;11.27;8.13;;;;;;;10.28;97.73;100026.78;683538;28;1207;-49
2021/10/31 00:25:44;;;;;;;10.77;8.23;;;;;;;10.34;97.40;100025.81;682988;28;1492;-51
2021/10/31 00:26:05;;;;;;;11.87;8.63;;;;;;;10.34;97.64;100031.03;683299;28;1337;-52
2021/10/31 00:26:25;;;;;;;10.97;8.77;;;;;;;10.30;97.84;100019.78;684140;28;3071;-51
2021/10/31 00:26:46;;;;;;;10.90;8.80;;;;;;;10.30;98.11;100029.34;682624;28;3425;-50
2021/10/31 00:27:07;;;;;;;11.52;9.00;;;;;;;10.29;97.57;100033.72;683374;28;2010;-51
2021/10/31 00:27:27;;;;;;;11.18;8.88;;;;;;;10.28;97.94;100023.31;682612;28;1229;-51
2021/10/31 00:27:48;;;;;;;10.80;8.83;;;;;;;10.26;98.15;100025.06;683158;28;1122;-50
2021/10/31 00:28:08;;;;;;;12.15;9.23;;;;;;;10.23;98.92;100023.34;682552;28;4373;-49
2021/10/31 00:28:29;;;;;;;12.33;9.70;;;;;;;10.20;99.35;100026.88;684683;28;1914;-51
2021/10/31 00:28:49;;;;;;;11.88;9.82;;;;;;;10.20;98.73;100026.88;683617;28;1612;-53
2021/10/31 00:29:10;;;;;;;11.37;8.87;;;;;;;10.22;98.20;100032.94;683868;28;1323;-53
2021/10/31 00:29:30;;;;;;;10.20;8.50;;;;;;;10.27;97.73;100032.03;683983;28;1310;-49
2021/10/31 00:29:50;;;;;;;10.70;8.73;;;;;;;10.31;97.43;100028.47;684037;28;1186;-53
2021/10/31 00:30:11;;;;;;;10.18;8.50;;;;;;;10.35;96.96;100025.81;682341;28;3280;-49
2021/10/31 00:30:32;;;;;;;10.43;8.70;;;;;;;10.31;97.32;100028.47;683431;28;3975;-54
2021/10/31 00:30:52;;;;;;;10.55;8.50;;;;;;;10.29;97.41;100030.25;683461;28;1162;-49
2021/10/31 00:31:13;;;;;;;9.70;8.25;;;;;;;10.30;97.47;100031.97;683109;28;4332;-51
2021/10/31 00:31:33;;;;;;;10.10;8.30;;;;;;;10.27;97.66;100030.25;681812;28;1186;-52
2021/10/31 00:31:53;;;;;;;10.32;8.80;;;;;;;10.29;97.19;100027.66;684257;28;1290;-50
2021/10/31 00:32:14;;;;;;;11.10;8.43;;;;;;;10.35;97.22;100030.19;684288;28;1226;-52
2021/10/31 00:32:34;;;;;;;11.37;8.37;;;;;;;10.41;96.73;100037.94;683540;28;1276;-50
2021/10/31 00:32:55;;;;;;;10.25;8.30;;;;;;;10.42;96.32;100036.22;683785;28;1174;-52
2021/10/31 00:33:15;;;;;;;10.20;8.50;;;;;;;10.37;96.81;100028.41;684534;28;1166;-51
2021/10/31 00:33:35;;;;;;;11.10;9.07;;;;;;;10.28;97.65;100034.59;683374;28;1190;-53
2021/10/31 00:33:56;;;;;;;11.40;8.97;;;;;;;10.23;97.99;100032.06;682646;28;4737;-51
2021/10/31 00:34:16;;;;;;;11.73;9.02;;;;;;;10.20;97.84;100026.88;683372;28;1248;-50
2021/10/31 00:34:36;;;;;;;10.20;8.57;;;;;;;10.19;98.29;100033.00;683698;28;1056;-49
2021/10/31 00:34:57;;;;;;;11.67;9.00;;;;;;;10.16;98.61;100030.44;682668;28;1110;-49
2021/10/31 00:35:17;;;;;;;12.32;9.13;;;;;;;10.14;98.97;100031.31;683175;28;1099;-50
2021/10/31 00:35:38;;;;;;;12.70;9.40;;;;;;;10.11;98.65;100029.63;683595;28;1206;-51
2021/10/31 00:35:58;;;;;;;11.27;9.27;;;;;;;10.10;98.71;100035.72;684341;28;1266;-52
2021/10/31 00:36:18;;;;;;;10.63;9.17;;;;;;;10.09;98.50;100028.75;683883;28;1259;-50
2021/10/31 00:36:39;;;;;;;11.20;9.53;;;;;;;10.07;98.63;100029.69;685623;28;1059;-51
2021/10/31 00:36:59;;;;;;;10.77;9.13;;;;;;;10.05;98.71;100029.69;682725;28;5681;-51
2021/10/31 00:37:19;;;;;;;10.30;8.53;;;;;;;10.04;98.47;100027.97;682306;28;3736;-52
2021/10/31 00:37:40;;;;;;;10.15;8.40;;;;;;;10.03;98.61;100036.69;682830;28;1308;-49
2021/10/31 00:38:00;;;;;;;10.70;8.37;;;;;;;10.04;98.36;100033.19;683513;28;1206;-49
2021/10/31 00:38:21;;;;;;;10.35;8.40;;;;;;;10.09;98.18;100030.50;684096;28;1286;-51
2021/10/31 00:38:41;;;;;;;9.80;8.20;;;;;;;10.10;97.77;100027.88;682614;28;1148;-53
2021/10/31 00:39:01;;;;;;;11.15;8.45;;;;;;;10.11;97.95;100033.97;683626;28;1266;-49
2021/10/31 00:39:22;;;;;;;11.20;9.10;;;;;;;10.07;98.46;100033.16;683673;28;3587;-52
2021/10/31 00:39:42;;;;;;;10.27;9.07;;;;;;;10.01;98.87;100030.59;683503;28;1246;-49
2021/10/31 00:40:03;;;;;;;10.65;9.15;;;;;;;9.99;98.98;100035.00;683923;28;5577;-49
2021/10/31 00:40:24;;;;;;;11.23;8.95;;;;;;;9.99;98.89;100032.38;684244;28;3965;-50
2021/10/31 00:40:45;;;;;;;10.95;8.75;;;;;;;9.97;99.03;100034.13;685086;28;1306;-52
2021/10/31 00:41:05;;;;;;;10.57;8.50;;;;;;;9.95;99.12;100033.31;685781;28;1100;-50
2021/10/31 00:41:25;;;;;;;11.37;8.47;;;;;;;9.97;98.73;100029.78;683449;28;964;-49
2021/10/31 00:41:46;;;;;;;10.37;8.67;;;;;;;9.97;99.23;100028.91;683491;28;1179;-52
2021/10/31 00:42:06;;;;;;;11.13;8.80;;;;;;;9.97;98.53;100029.78;684323;28;1175;-50
2021/10/31 00:42:27;;;;;;;11.70;8.70;;;;;;;9.97;98.98;100028.91;683508;28;1360;-52
2021/10/31 00:42:47;;;;;;;12.55;8.88;;;;;;;9.97;98.87;100036.75;683317;28;1396;-48
2021/10/31 00:43:07;;;;;;;11.97;9.03;;;;;;;9.96;98.94;100032.44;683411;28;5564;-49
2021/10/31 00:43:28;;;;;;;11.60;8.88;;;;;;;9.97;98.95;100034.13;683279;28;2099;-51
2021/10/31 00:43:49;;;;;;;10.97;8.87;;;;;;;9.94;98.96;100031.56;682599;28;3377;-50
2021/10/31 00:44:09;;;;;;;10.48;9.10;;;;;;;9.91;99.63;100029.84;684054;28;1353;-52
2021/10/31 00:44:29;;;;;;;11.10;8.82;;;;;;;9.86;99.96;100027.31;683192;28;1181;-53
2021/10/31 00:44:50;;;;;;;11.57;8.77;;;;;;;9.88;99.60;100030.78;681708;28;1330;-53
2021/10/31 00:45:10;;;;;;;11.87;8.50;;;;;;;9.91;99.67;100034.22;683946;28;1326;-50
2021/10/31 00:45:31;;;;;;;11.10;9.00;;;;;;;9.88;99.98;100024.66;684017;28;1502;-51
2021/10/31 00:45:51;;;;;;;12.00;9.30;;;;;;;9.87;99.52;100023.81;683452;28;1285;-49
2021/10/31 00:46:11;;;;;;;11.13;8.65;;;;;;;9.92;99.50;100034.19;683023;28;4516;-50
2021/10/31 00:46:32;;;;;;;9.80;8.23;;;;;;;9.97;98.86;100034.13;684112;28;1839;-52
2021/10/31 00:46:52;;;;;;;9.98;8.35;;;;;;;10.01;98.72;100038.44;682873;28;3920;-49
2021/10/31 00:47:13;;;;;;;10.63;8.40;;;;;;;10.04;98.46;100033.19;683287;28;1052;-51
2021/10/31 00:47:34;;;;;;;11.57;8.68;;;;;;;9.99;99.21;100024.53;682847;28;1209;-51
2021/10/31 00:47:54;;;;;;;11.45;8.50;;;;;;;9.93;99.11;100027.22;683376;28;1392;-53
2021/10/31 00:48:15;;;;;;;11.45;8.85;;;;;;;9.89;99.32;100037.69;683443;28;1019;-52
2021/10/31 00:48:36;;;;;;;11.27;9.20;;;;;;;9.85;99.97;100035.16;682960;28;1918;-51
2021/10/31 00:48:57;;;;;;;11.60;8.90;;;;;;;9.81;100.00;100034.31;682341;28;4365;-50
2021/10/31 00:49:17;;;;;;;11.93;8.88;;;;;;;9.82;100.00;100030.84;684270;28;1020;-50
2021/10/31 00:49:38;;;;;;;11.32;9.18;;;;;;;9.82;100.00;100035.19;683303;28;1194;-51
2021/10/31 00:49:58;;;;;;;11.97;8.90;;;;;;;9.80;100.00;100024.78;683453;28;3266;-51
2021/10/31 00:50:21;;;;;;;11.20;8.57;;;;;;;9.83;99.80;100035.19;684062;28;3225;-51
2021/10/31 00:50:42;;;;;;;10.55;8.20;;;;;;;9.86;99.20;100032.53;682957;28;1279;-51
2021/10/31 00:51:03;;;;;;;10.35;8.52;;;;;;;9.85;99.25;100033.41;682066;28;1095;-49
2021/10/31 00:51:27;;;;;;;10.53;8.90;;;;;;;9.81;99.49;100034.31;682309;28;1048;-50
2021/10/31 00:51:48;;;;;;;11.40;9.00;;;;;;;9.78;100.00;100028.28;683893;28;1322;-51
2021/10/31 00:52:10;;;;;;;11.95;9.20;;;;;;;9.77;100.00;100030.00;683359;28;4540;-49
2021/10/31 00:52:32;;;;;;;11.25;9.18;;;;;;;9.78;99.91;100033.50;683682;28;1071;-50
2021/10/31 00:52:53;;;;;;;12.90;9.40;;;;;;;9.76;100.00;100036.13;683728;28;1063;-50
2021/10/31 00:53:13;;;;;;;11.45;9.48;;;;;;;9.74;100.00;100031.81;682706;28;3718;-49
2021/10/31 00:53:36;;;;;;;11.93;9.20;;;;;;;9.73;100.00;100030.06;683000;28;3571;-51
2021/10/31 00:53:58;;;;;;;12.35;9.38;;;;;;;9.72;100.00;100029.22;683238;28;1466;-49
2021/10/31 00:54:19;;;;;;;11.52;9.20;;;;;;;9.73;100.00;100032.69;681972;28;1181;-50
2021/10/31 00:54:39;;;;;;;11.07;8.50;;;;;;;9.78;99.45;100034.34;683432;28;1028;-52
2021/10/31 00:55:00;;;;;;;10.20;8.30;;;;;;;9.86;99.10;100032.53;683212;28;4635;-53
2021/10/31 00:55:21;;;;;;;9.77;8.55;;;;;;;9.87;99.15;100029.03;680576;28;1124;-53
2021/10/31 00:55:41;;;;;;;9.77;8.57;;;;;;;9.87;99.55;100031.66;679821;28;1238;-53
2021/10/31 00:56:04;;;;;;;9.98;8.70;;;;;;;9.85;99.16;100027.31;681135;28;1092;-53
2021/10/31 00:56:25;;;;;;;9.82;8.38;;;;;;;9.87;98.75;100033.38;681337;28;3035;-50
2021/10/31 00:56:45;;;;;;;9.83;7.87;;;;;;;9.91;98.51;100029.00;679804;28;1144;-50
2021/10/31 00:57:06;;;;;;;10.88;8.30;;;;;;;9.93;98.12;100027.22;683744;28;3642;-51
2021/10/31 00:57:27;;;;;;;11.27;8.02;;;;;;;9.99;97.93;100032.38;683841;28;1226;-51
2021/10/31 00:57:47;;;;;;;10.93;7.70;;;;;;;10.02;97.33;100027.13;683361;28;1069;-53
2021/10/31 00:58:10;;;;;;;10.57;8.00;;;;;;;10.05;97.35;100027.06;682268;28;4565;-53
2021/10/31 00:58:31;;;;;;;11.43;8.40;;;;;;;10.07;96.79;100033.16;684054;28;1461;-54
2021/10/31 00:58:52;;;;;;;11.30;8.20;;;;;;;10.09;96.85;100027.91;683250;28;1149;-52
2021/10/31 00:59:12;;;;;;;10.83;8.20;;;;;;;10.11;96.58;100036.59;683648;28;1226;-49
2021/10/31 00:59:32;;;;;;;10.40;8.30;;;;;;;10.08;97.21;100037.50;683545;28;3204;-50
2021/10/31 00:59:54;;;;;;;10.40;8.60;;;;;;;10.03;97.38;100028.84;682885;28;3564;-52
2021/10/31 01:00:15;;;;;;;10.43;8.95;;;;;;;9.97;98.06;100028.91;683721;28;1203;-50
2021/10/31 01:00:35;;;;;;;10.90;8.70;;;;;;;9.95;97.89;100041.13;683999;28;1331;-50
2021/10/31 01:00:55;;;;;;;10.33;8.30;;;;;;;9.96;97.50;100037.66;683817;28;1067;-52
2021/10/31 01:01:16;;;;;;;10.43;8.00;;;;;;;10.03;97.13;100028.84;683713;28;1111;-51
2021/10/31 01:01:37;;;;;;;9.93;8.17;;;;;;;10.07;97.01;100030.53;682255;28;1402;-50
2021/10/31 01:01:59;;;;;;;11.55;8.30;;;;;;;10.03;97.25;100039.28;682319;28;1156;-53
2021/10/31 01:02:20;;;;;;;12.88;8.93;;;;;;;9.95;97.70;100036.75;685036;28;1079;-51
2021/10/31 01:02:41;;;;;;;13.32;9.20;;;;;;;9.93;97.81;100035.94;683058;28;1068;-52
2021/10/31 01:03:01;;;;;;;10.95;8.88;;;;;;;9.89;98.27;100034.25;682109;28;4246;-50
2021/10/31 01:03:21;;;;;;;10.97;8.73;;;;;;;9.86;98.49;100037.75;683752;28;1511;-51
2021/10/31 01:03:42;;;;;;;10.17;8.57;;;;;;;9.86;98.39;100042.13;682391;28;1239;-50
2021/10/31 01:04:04;;;;;;;10.60;8.50;;;;;;;9.83;98.72;100039.50;684144;28;1457;-52
2021/10/31 01:04:26;;;;;;;11.45;8.88;;;;;;;9.81;99.12;100043.91;682975;28;1166;-50
2021/10/31 01:04:54;;;;;;;11.20;8.73;;;;;;;9.78;99.58;100039.59;681933;28;1299;-51
2021/10/31 01:05:19;;;;;;;11.05;8.45;;;;;;;9.78;99.78;100038.72;684307;28;1162;-52
2021/10/31 01:05:46;;;;;;;12.23;8.73;;;;;;;9.79;98.79;100032.59;681780;28;1024;-52
2021/10/31 01:06:25;;;;;;;10.68;8.07;;;;;;;9.83;97.85;100037.78;682539;28;3141;-51
2021/10/31 01:06:57;;;;;;;10.82;8.20;;;;;;;9.79;97.91;100037.81;683173;28;1345;-53
2021/10/31 01:07:44;;;;;;;10.32;8.02;;;;;;;9.75;98.78;100038.75;683435;28;1184;-53
2021/10/31 01:08:23;;;;;;;11.07;8.60;;;;;;;9.71;99.48;100043.16;683662;28;1207;-53
2021/10/31 01:09:01;;;;;;;10.55;8.48;;;;;;;9.72;99.18;100042.28;683395;28;1227;-52
2021/10/31 01:09:53;;;;;;;9.88;8.07;;;;;;;9.71;99.08;100044.00;683313;28;1989;-52
2021/10/31 01:10:28;;;;;;;10.15;7.65;;;;;;;9.70;98.82;100038.81;684114;28;1184;-54
2021/10/31 01:11:26;;;;;;;11.80;7.82;;;;;;;9.72;98.68;100044.88;683329;28;1291;-52
2021/10/31 01:12:08;;;;;;;10.63;8.23;;;;;;;9.68;99.61;100043.19;682853;28;1243;-52
2021/10/31 01:13:11;;;;;;;10.57;8.07;;;;;;;9.63;99.85;100040.63;683994;28;3627;-54
2021/10/31 01:13:53;;;;;;;10.07;7.90;;;;;;;9.62;99.61;100040.63;683722;28;1419;-52
2021/10/31 01:14:48;;;;;;;11.52;7.72;;;;;;;9.62;99.27;100043.25;683865;28;1246;-51
2021/10/31 01:15:24;;;;;;;10.73;7.55;;;;;;;9.68;98.58;100043.19;682834;28;1402;-51
2021/10/31 01:15:55;;;;;;;11.50;7.47;;;;;;;9.67;98.43;100044.91;682973;28;3371;-54
2021/10/31 01:16:52;;;;;;;9.45;7.65;;;;;;;9.64;98.83;100038.88;683121;28;1340;-54
2021/10/31 01:17:35;;;;;;;11.50;7.40;;;;;;;9.60;99.60;100039.81;684002;28;1234;-54
2021/10/31 01:18:10;;;;;;;12.27;7.85;;;;;;;9.57;99.57;100037.19;683860;28;1387;-54
2021/10/31 01:18:53;;;;;;;10.60;8.23;;;;;;;9.56;99.93;100032.88;683728;28;1243;-50
2021/10/31 01:19:44;;;;;;;11.27;8.52;;;;;;;9.53;100.00;100034.63;683638;28;3510;-55
2021/10/31 01:20:18;;;;;;;10.45;8.27;;;;;;;9.52;100.00;100034.66;683562;28;1095;-51
2021/10/31 01:20:48;;;;;;;10.43;7.72;;;;;;;9.53;100.00;100039.84;682630;28;1112;-52
2021/10/31 01:21:36;;;;;;;11.73;8.30;;;;;;;9.55;99.35;100037.22;684508;28;1168;-54
2021/10/31 01:22:09;;;;;;;10.27;7.70;;;;;;;9.52;99.90;100037.25;683812;28;1123;-53
2021/10/31 01:22:42;;;;;;;10.50;8.13;;;;;;;9.52;99.32;100038.09;683278;28;2065;-51
2021/10/31 01:23:23;;;;;;;9.43;7.55;;;;;;;9.54;99.48;100038.13;683853;28;1006;-52
2021/10/31 01:24:05;;;;;;;10.43;7.72;;;;;;;9.52;100.00;100038.09;683701;28;1222;-53
2021/10/31 01:24:34;;;;;;;10.93;8.02;;;;;;;9.52;100.00;100032.91;683325;28;1158;-51
2021/10/31 01:25:15;;;;;;;11.48;8.35;;;;;;;9.51;99.79;100033.78;684274;28;1235;-54
2021/10/31 01:26:23;;;;;;;9.98;7.13;;;;;;;9.62;98.55;100032.81;683544;28;3917;-50
2021/10/31 01:27:17;;;;;;;9.88;7.75;;;;;;;9.57;99.18;100034.59;675003;29;1440;-54
2021/10/31 01:27:54;;;;;;;10.07;8.50;;;;;;;9.54;99.41;100032.91;675634;29;1137;-54
2021/10/31 01:28:34;;;;;;;10.32;7.57;;;;;;;9.56;99.34;100038.09;675740;29;1078;-50
2021/10/31 01:29:16;;;;;;;9.73;7.43;;;;;;;9.61;98.34;100036.28;684207;28;2227;-51
2021/10/31 01:30:01;;;;;;;9.88;7.82;;;;;;;9.57;99.39;100026.75;682444;28;1279;-51
2021/10/31 01:30:41;;;;;;;10.70;8.50;;;;;;;9.59;99.36;100038.06;683953;28;1250;-53
2021/10/31 01:31:39;;;;;;;10.63;8.23;;;;;;;9.58;99.92;100034.59;684033;28;1227;-51
2021/10/31 01:32:18;;;;;;;11.52;8.90;;;;;;;9.53;100.00;100039.84;682993;28;3488;-51
2021/10/31 01:32:39;;;;;;;10.52;8.05;;;;;;;9.52;99.82;100029.44;682895;28;1314;-52
2021/10/31 01:33:15;;;;;;;10.93;8.63;;;;;;;9.50;99.84;100042.50;683431;28;1328;-52
2021/10/31 01:33:51;;;;;;;9.27;7.70;;;;;;;9.53;98.86;100033.78;682561;28;1016;-51
2021/10/31 01:34:23;;;;;;;9.73;7.25;;;;;;;9.49;99.76;100037.28;683969;28;1441;-53
2021/10/31 01:35:10;;;;;;;9.60;7.53;;;;;;;9.53;98.95;100036.38;683014;28;1202;-53
2021/10/31 01:35:53;;;;;;;8.77;7.32;;;;;;;9.51;99.38;100033.78;683921;28;3479;-51
2021/10/31 01:36:30;;;;;;;10.50;8.00;;;;;;;9.50;98.74;100032.06;684170;28;1206;-50
2021/10/31 01:37:12;;;;;;;11.05;8.35;;;;;;;9.52;98.77;100032.91;683065;28;1303;-51
2021/10/31 01:38:02;;;;;;;9.65;7.70;;;;;;;9.52;98.67;100027.66;683519;28;1076;-52
2021/10/31 01:38:53;;;;;;;9.70;7.53;;;;;;;9.54;98.67;100031.16;682796;28;3320;-52
2021/10/31 01:39:21;;;;;;;9.73;7.38;;;;;;;9.58;98.08;100036.31;682204;28;3466;-52
2021/10/31 01:39:50;;;;;;;8.73;7.43;;;;;;;9.58;98.17;100034.59;682921;28;1255;-52
2021/10/31 01:40:13;;;;;;;9.60;7.75;;;;;;;9.59;98.44;100027.63;684704;28;1302;-52
2021/10/31 01:40:39;;;;;;;9.45;7.88;;;;;;;9.60;98.38;100037.19;685236;28;1068;-51
2021/10/31 01:41:16;;;;;;;9.90;7.72;;;;;;;9.68;97.63;100027.53;683779;28;1199;-52
2021/10/31 01:41:55;;;;;;;10.23;8.10;;;;;;;9.79;97.08;100032.59;683096;28;3724;-52
2021/10/31 01:42:18;;;;;;;9.50;7.72;;;;;;;9.83;96.52;100036.91;685447;28;1117;-51
2021/10/31 01:42:53;;;;;;;9.80;7.30;;;;;;;9.77;97.16;100034.38;684544;28;1131;-54
2021/10/31 01:43:49;;;;;;;10.70;7.65;;;;;;;9.68;98.60;100032.75;684231;28;1061;-53
2021/10/31 01:44:19;;;;;;;9.93;8.25;;;;;;;9.62;99.47;100032.81;686265;28;3170;-53
2021/10/31 01:45:00;;;;;;;10.73;8.30;;;;;;;9.57;99.71;100037.19;685992;28;4161;-54
2021/10/31 01:45:39;;;;;;;11.30;8.70;;;;;;;9.55;99.43;100037.22;686556;28;1190;-53
2021/10/31 01:46:26;;;;;;;9.88;7.90;;;;;;;9.58;98.79;100038.94;685411;28;1174;-55
2021/10/31 01:46:53;;;;;;;9.02;7.20;;;;;;;9.63;97.74;100029.31;683227;28;1089;-51
2021/10/31 01:47:37;;;;;;;9.50;7.50;;;;;;;9.60;98.39;100037.19;683806;28;2359;-52
2021/10/31 01:47:57;;;;;;;10.90;8.75;;;;;;;9.57;99.27;100037.19;683833;28;1186;-53
2021/10/31 01:48:30;;;;;;;10.00;8.13;;;;;;;9.54;98.64;100038.97;684440;28;1084;-53
2021/10/31 01:49:27;;;;;;;9.60;7.63;;;;;;;9.61;98.08;100036.28;683706;28;1116;-54
2021/10/31 01:50:11;;;;;;;9.70;7.32;;;;;;;9.69;97.11;100034.47;676147;29;1059;-51
2021/10/31 01:50:45;;;;;;;9.48;7.10;;;;;;;9.72;96.73;100034.44;683604;28;3372;-54
2021/10/31 01:51:17;;;;;;;8.52;6.90;;;;;;;9.69;97.08;100043.16;683249;28;993;-51
2021/10/31 01:51:52;;;;;;;10.23;7.90;;;;;;;9.65;97.77;100037.97;683742;28;1182;-52
2021/10/31 01:52:26;;;;;;;10.00;8.30;;;;;;;9.60;98.50;100038.03;685310;28;1192;-52
2021/10/31 01:52:52;;;;;;;10.52;7.60;;;;;;;9.60;97.78;100037.19;683776;28;1236;-52
2021/10/31 01:53:37;;;;;;;10.70;7.28;;;;;;;9.55;98.82;100032.00;682853;28;3193;-55
2021/10/31 01:54:02;;;;;;;9.32;8.05;;;;;;;9.56;98.98;100038.09;684128;28;1453;-51
2021/10/31 01:54:33;;;;;;;10.10;8.30;;;;;;;9.51;99.17;100035.53;684691;28;1105;-52
2021/10/31 01:55:02;;;;;;;10.25;8.02;;;;;;;9.52;98.61;100035.50;682969;28;1215;-52
2021/10/31 01:55:28;;;;;;;9.60;7.82;;;;;;;9.53;98.10;100039.84;684555;28;1271;-52
2021/10/31 01:55:54;;;;;;;8.63;7.07;;;;;;;9.56;97.54;100044.16;683669;28;1302;-53
2021/10/31 01:56:18;;;;;;;9.40;7.45;;;;;;;9.57;97.63;100037.19;684088;28;3570;-51
2021/10/31 01:56:41;;;;;;;10.70;7.78;;;;;;;9.53;98.13;100042.47;683700;28;1186;-52
2021/10/31 01:57:06;;;;;;;10.73;7.63;;;;;;;9.49;98.62;100038.16;685071;28;956;-53
2021/10/31 01:57:29;;;;;;;9.52;7.30;;;;;;;9.49;98.48;100038.16;684145;28;1236;-53
2021/10/31 01:57:56;;;;;;;9.98;7.35;;;;;;;9.56;98.01;100032.88;683339;28;1661;-51
2021/10/31 01:58:20;;;;;;;9.05;6.90;;;;;;;9.62;97.89;100035.41;684393;28;1194;-50
2021/10/31 01:58:46;;;;;;;8.95;7.22;;;;;;;9.61;97.62;100036.28;683419;28;1162;-53
2021/10/31 01:59:16;;;;;;;10.20;7.40;;;;;;;9.58;97.95;100031.09;684035;28;4026;-52
2021/10/31 01:59:41;;;;;;;9.75;7.35;;;;;;;9.62;97.85;100033.69;683126;28;1204;-50
2021/10/31 02:00:05;;;;;;;9.43;7.20;;;;;;;9.64;97.48;100037.13;684170;28;1290;-51
2021/10/31 02:00:33;;;;;;;10.25;7.68;;;;;;;9.63;97.57;100035.38;685247;28;1001;-51
2021/10/31 02:00:55;;;;;;;9.63;7.32;;;;;;;9.63;97.43;100030.16;684072;28;4609;-51
2021/10/31 02:01:18;;;;;;;10.07;7.97;;;;;;;9.59;98.04;100032.84;683561;28;1211;-52
2021/10/31 02:01:41;;;;;;;10.63;8.18;;;;;;;9.56;98.32;100027.66;683542;28;1114;-53
2021/10/31 02:02:04;;;;;;;9.50;7.75;;;;;;;9.58;97.97;100036.31;682773;28;2003;-54
2021/10/31 02:02:27;;;;;;;9.18;7.53;;;;;;;9.58;97.60;100038.94;683533;28;3798;-50
2021/10/31 02:02:48;;;;;;;8.80;7.40;;;;;;;9.60;97.60;100034.59;683991;28;1212;-51
2021/10/31 02:03:11;;;;;;;9.15;7.32;;;;;;;9.63;97.25;100040.63;683915;28;1266;-51